Time;durP1;ratioP1;P1;durP2;ratioP2;P2;SDS_P1;SDS_P2;PMS_P1;PMS_P2;Temp;Humidity;BMP_temperature;BMP_pressure;BME280_temperature;BME280_humidity;BME280_pressure;Samples;Min_cycle;Max_cycle;Signal;HPM_P1;HPM_P2
2023/08/12 00:01:02;;;;;;;15.38;4.97;;;;;;;;;;5018031;28;20073;-72
2023/08/12 00:03:28;;;;;;;16.13;5.40;;;;;;;;;;5005673;28;20178;-72
2023/08/12 00:05:56;;;;;;;14.43;5.82;;;;;;;;;;5019056;28;20462;-71
2023/08/12 00:08:22;;;;;;;13.25;4.90;;;;;;;;;;5018549;28;20289;-72
2023/08/12 00:10:49;;;;;;;15.30;4.88;;;;;;;;;;5018709;28;20388;-71
2023/08/12 00:13:17;;;;;;;10.95;3.78;;;;;;;;;;4998921;28;20829;-71
2023/08/12 00:15:44;;;;;;;13.25;4.80;;;;;;;;;;5003561;28;20029;-73
2023/08/12 00:18:10;;;;;;;13.75;5.13;;;;;;;;;;5000644;28;20772;-71
2023/08/12 00:20:37;;;;;;;13.57;5.20;;;;;;;;;;5020539;28;20044;-73
2023/08/12 00:23:04;;;;;;;13.10;4.82;;;;;;;;;;5014905;28;20025;-72
2023/08/12 00:25:30;;;;;;;11.27;4.47;;;;;;;;;;5001680;28;20181;-71
2023/08/12 00:27:57;;;;;;;11.95;4.75;;;;;;;;;;5015963;28;20266;-72
2023/08/12 00:30:23;;;;;;;11.73;4.47;;;;;;;;;;5019109;28;20110;-71
2023/08/12 00:32:49;;;;;;;10.82;3.72;;;;;;;;;;5018573;28;20153;-71
2023/08/12 00:35:15;;;;;;;10.25;3.95;;;;;;;;;;5015534;28;20127;-72
2023/08/12 00:37:42;;;;;;;11.82;4.10;;;;;;;;;;5017669;28;20029;-71
2023/08/12 00:40:08;;;;;;;11.00;4.22;;;;;;;;;;5017829;28;20025;-71
2023/08/12 00:42:34;;;;;;;10.15;3.80;;;;;;;;;;5017518;28;20487;-72
2023/08/12 00:45:01;;;;;;;10.65;3.90;;;;;;;;;;5015575;28;20038;-71
2023/08/12 00:47:28;;;;;;;11.30;4.05;;;;;;;;;;5019052;28;20040;-71
2023/08/12 00:49:57;;;;;;;9.77;3.50;;;;;;;;;;5019502;28;20396;-71
2023/08/12 00:52:23;;;;;;;11.15;4.00;;;;;;;;;;5022262;28;20025;-72
2023/08/12 00:54:49;;;;;;;9.45;3.47;;;;;;;;;;5024089;28;20040;-72
2023/08/12 00:57:15;;;;;;;9.27;3.55;;;;;;;;;;5003542;28;20860;-72
2023/08/12 00:59:42;;;;;;;9.18;3.65;;;;;;;;;;5021452;28;20029;-72
2023/08/12 01:02:09;;;;;;;9.98;3.72;;;;;;;;;;5005660;28;20025;-72
2023/08/12 01:04:35;;;;;;;9.25;3.33;;;;;;;;;;5006709;28;20468;-72
2023/08/12 01:07:01;;;;;;;9.77;3.38;;;;;;;;;;5017311;28;20026;-71
2023/08/12 01:09:27;;;;;;;9.32;3.72;;;;;;;;;;5023591;28;20036;-71
2023/08/12 01:12:05;;;;;;;10.25;3.40;;;;;;;;;;5018561;28;20040;-71
2023/08/12 01:14:46;;;;;;;10.00;3.60;;;;;;;;;;5021153;28;20087;-72
2023/08/12 01:17:13;;;;;;;9.00;3.40;;;;;;;;;;5017655;28;20281;-73
2023/08/12 01:19:40;;;;;;;10.68;3.25;;;;;;;;;;5022119;28;20039;-71
2023/08/12 01:22:11;;;;;;;8.50;3.33;;;;;;;;;;5022181;28;20099;-72
2023/08/12 01:24:41;;;;;;;10.25;3.53;;;;;;;;;;5020795;28;20609;-72
2023/08/12 01:27:08;;;;;;;12.85;3.60;;;;;;;;;;5020924;28;20033;-72
2023/08/12 01:29:35;;;;;;;10.90;3.30;;;;;;;;;;5020434;28;20043;-72
2023/08/12 01:32:20;;;;;;;8.60;3.10;;;;;;;;;;5019798;28;20123;-73
2023/08/12 01:35:05;;;;;;;8.82;3.60;;;;;;;;;;5017878;28;20138;-72
2023/08/12 01:37:33;;;;;;;8.75;3.55;;;;;;;;;;5022958;28;20025;-72
2023/08/12 01:40:02;;;;;;;10.20;3.60;;;;;;;;;;5020299;28;20211;-72
2023/08/12 01:42:29;;;;;;;8.85;3.22;;;;;;;;;;5019400;28;20020;-73
2023/08/12 01:44:56;;;;;;;8.82;3.13;;;;;;;;;;5021405;28;20482;-72
2023/08/12 01:47:22;;;;;;;9.10;3.17;;;;;;;;;;5020276;28;20501;-72
2023/08/12 01:49:48;;;;;;;9.82;3.70;;;;;;;;;;5019909;28;20551;-72
2023/08/12 01:52:15;;;;;;;10.82;3.53;;;;;;;;;;5018864;28;21148;-71
2023/08/12 01:54:41;;;;;;;10.30;3.60;;;;;;;;;;5019182;28;20060;-72
2023/08/12 01:57:08;;;;;;;10.45;3.80;;;;;;;;;;5016966;28;20519;-73
2023/08/12 01:59:38;;;;;;;10.15;3.70;;;;;;;;;;5018325;28;20031;-72
2023/08/12 02:02:04;;;;;;;9.70;3.53;;;;;;;;;;5013848;28;20026;-71
2023/08/12 02:04:30;;;;;;;12.05;3.55;;;;;;;;;;5017247;28;20864;-72
2023/08/12 02:06:57;;;;;;;9.35;3.78;;;;;;;;;;5016856;28;20324;-72
2023/08/12 02:09:23;;;;;;;10.15;3.40;;;;;;;;;;5021152;28;20114;-72
2023/08/12 02:11:50;;;;;;;9.10;3.55;;;;;;;;;;5020717;28;20447;-73
2023/08/12 02:14:16;;;;;;;10.68;3.38;;;;;;;;;;5021255;28;20510;-73
2023/08/12 02:16:42;;;;;;;8.02;3.42;;;;;;;;;;5004555;28;20033;-71
2023/08/12 02:19:08;;;;;;;10.07;3.70;;;;;;;;;;5019993;28;20628;-73
2023/08/12 02:21:34;;;;;;;9.02;3.10;;;;;;;;;;5016402;28;20021;-73
2023/08/12 02:24:00;;;;;;;8.10;3.40;;;;;;;;;;5019305;28;20534;-73
2023/08/12 02:26:26;;;;;;;7.63;2.90;;;;;;;;;;5018844;28;20071;-73
2023/08/12 02:28:53;;;;;;;9.43;3.03;;;;;;;;;;4999356;28;20578;-72
2023/08/12 02:31:19;;;;;;;10.80;2.85;;;;;;;;;;5019099;28;20416;-72
2023/08/12 02:33:45;;;;;;;8.48;3.17;;;;;;;;;;5000652;28;20138;-72
2023/08/12 02:36:11;;;;;;;7.82;2.83;;;;;;;;;;5017816;28;20076;-72
2023/08/12 02:38:37;;;;;;;9.23;3.22;;;;;;;;;;5021095;28;20020;-72
2023/08/12 02:41:03;;;;;;;8.02;2.88;;;;;;;;;;5012374;28;20025;-72
2023/08/12 02:43:29;;;;;;;9.35;3.08;;;;;;;;;;5022668;28;20140;-72
2023/08/12 02:45:56;;;;;;;8.60;3.10;;;;;;;;;;5017809;28;20107;-72
2023/08/12 02:48:22;;;;;;;10.50;3.40;;;;;;;;;;5018407;28;20473;-72
2023/08/12 02:50:48;;;;;;;8.30;2.90;;;;;;;;;;5019129;28;20060;-72
2023/08/12 02:53:16;;;;;;;9.27;3.20;;;;;;;;;;4999687;28;20040;-71
2023/08/12 02:55:42;;;;;;;7.65;2.90;;;;;;;;;;5019706;28;20484;-71
2023/08/12 02:58:08;;;;;;;11.38;3.17;;;;;;;;;;5017865;28;20092;-73
2023/08/12 03:00:34;;;;;;;7.80;2.90;;;;;;;;;;5019625;28;20110;-72
2023/08/12 03:03:00;;;;;;;7.68;2.40;;;;;;;;;;5013905;28;20108;-72
2023/08/12 03:05:26;;;;;;;6.57;2.50;;;;;;;;;;4998721;28;20033;-71
2023/08/12 03:07:52;;;;;;;6.93;2.78;;;;;;;;;;5020858;28;20041;-72
2023/08/12 03:10:19;;;;;;;6.93;2.67;;;;;;;;;;4997833;28;20297;-72
2023/08/12 03:12:45;;;;;;;9.10;3.10;;;;;;;;;;5018396;28;20060;-71
2023/08/12 03:15:11;;;;;;;10.20;3.60;;;;;;;;;;5014160;28;20109;-71
2023/08/12 03:17:41;;;;;;;7.88;2.80;;;;;;;;;;5016677;28;20036;-71
2023/08/12 03:20:08;;;;;;;12.57;3.95;;;;;;;;;;5016317;28;20153;-71
2023/08/12 03:22:36;;;;;;;11.40;3.88;;;;;;;;;;5016829;28;20088;-72
2023/08/12 03:25:02;;;;;;;8.55;3.67;;;;;;;;;;5012609;28;20117;-71
2023/08/12 03:27:28;;;;;;;8.38;3.10;;;;;;;;;;5001016;28;20037;-72
2023/08/12 03:29:54;;;;;;;8.65;3.20;;;;;;;;;;5018177;28;20546;-71
2023/08/12 03:32:20;;;;;;;9.23;3.03;;;;;;;;;;5019198;28;20029;-72
2023/08/12 03:34:46;;;;;;;9.30;2.95;;;;;;;;;;5015270;28;20172;-71
2023/08/12 03:37:13;;;;;;;11.55;3.33;;;;;;;;;;4998473;28;20029;-71
2023/08/12 03:39:39;;;;;;;12.93;3.35;;;;;;;;;;5019108;28;20347;-72
2023/08/12 03:42:05;;;;;;;9.20;3.25;;;;;;;;;;4998079;28;20564;-72
2023/08/12 03:44:31;;;;;;;9.10;3.00;;;;;;;;;;5012520;28;20087;-72
2023/08/12 03:46:57;;;;;;;10.27;3.50;;;;;;;;;;5012359;28;20060;-71
2023/08/12 03:49:23;;;;;;;9.15;3.28;;;;;;;;;;5002299;28;20056;-71
2023/08/12 03:51:49;;;;;;;9.82;3.45;;;;;;;;;;5015829;28;20460;-71
2023/08/12 03:54:15;;;;;;;10.98;3.75;;;;;;;;;;5014228;28;20530;-71
2023/08/12 03:56:42;;;;;;;11.35;3.47;;;;;;;;;;4997362;28;20606;-72
2023/08/12 03:59:08;;;;;;;9.57;3.50;;;;;;;;;;5013482;28;20128;-71
2023/08/12 04:01:34;;;;;;;9.45;2.97;;;;;;;;;;4994324;28;20036;-71
2023/08/12 04:04:00;;;;;;;9.25;3.65;;;;;;;;;;5017392;28;20349;-71
2023/08/12 04:06:26;;;;;;;9.95;3.38;;;;;;;;;;5014261;28;20684;-71
2023/08/12 04:08:52;;;;;;;10.32;3.63;;;;;;;;;;5003885;28;20229;-71
2023/08/12 04:11:18;;;;;;;8.95;3.10;;;;;;;;;;4995057;28;20032;-71
2023/08/12 04:13:44;;;;;;;9.48;3.33;;;;;;;;;;4996881;28;20044;-71
2023/08/12 04:16:11;;;;;;;11.38;3.47;;;;;;;;;;5014425;28;20554;-71
2023/08/12 04:18:37;;;;;;;8.13;3.30;;;;;;;;;;5019177;28;20021;-72
2023/08/12 04:21:03;;;;;;;8.93;3.60;;;;;;;;;;5010363;28;20060;-73
2023/08/12 04:23:29;;;;;;;8.43;3.22;;;;;;;;;;5014153;28;20026;-71
2023/08/12 04:25:55;;;;;;;9.23;3.42;;;;;;;;;;5019488;28;20116;-71
2023/08/12 04:28:21;;;;;;;8.40;3.20;;;;;;;;;;5019099;28;20104;-71
2023/08/12 04:30:48;;;;;;;10.32;3.25;;;;;;;;;;5022858;28;20072;-71
2023/08/12 04:33:14;;;;;;;8.20;3.00;;;;;;;;;;5018128;28;24458;-71
2023/08/12 04:35:41;;;;;;;7.47;2.70;;;;;;;;;;5018899;28;20128;-71
2023/08/12 04:38:08;;;;;;;6.97;2.45;;;;;;;;;;5001963;28;20051;-71
2023/08/12 04:40:34;;;;;;;7.75;2.60;;;;;;;;;;5003978;28;20032;-71
2023/08/12 04:43:01;;;;;;;8.63;2.72;;;;;;;;;;5016830;28;20033;-71
2023/08/12 04:45:27;;;;;;;13.00;3.65;;;;;;;;;;5020651;28;20577;-72
2023/08/12 04:47:54;;;;;;;8.68;2.83;;;;;;;;;;5022732;28;20140;-71
2023/08/12 04:50:20;;;;;;;8.73;2.90;;;;;;;;;;5024033;28;20040;-73
2023/08/12 04:52:46;;;;;;;11.25;3.22;;;;;;;;;;5019705;28;20037;-71
2023/08/12 04:55:13;;;;;;;10.57;3.42;;;;;;;;;;5020293;28;20327;-71
2023/08/12 04:57:39;;;;;;;14.27;3.70;;;;;;;;;;5018568;28;20029;-71
2023/08/12 05:00:09;;;;;;;10.15;3.60;;;;;;;;;;5021034;28;20021;-71
2023/08/12 05:02:35;;;;;;;11.30;3.30;;;;;;;;;;5002844;28;20060;-71
2023/08/12 05:05:02;;;;;;;8.82;3.50;;;;;;;;;;5015002;28;20052;-72
2023/08/12 05:07:28;;;;;;;12.13;3.95;;;;;;;;;;5021123;28;20071;-71
2023/08/12 05:09:54;;;;;;;10.07;3.53;;;;;;;;;;5019327;28;20021;-71
2023/08/12 05:12:20;;;;;;;11.32;3.80;;;;;;;;;;5021904;28;20029;-72
2023/08/12 05:14:47;;;;;;;12.25;4.32;;;;;;;;;;5021637;28;20033;-72
2023/08/12 05:17:13;;;;;;;14.13;4.13;;;;;;;;;;5019605;28;20679;-72
2023/08/12 05:19:39;;;;;;;10.13;3.65;;;;;;;;;;5019623;28;20490;-72
2023/08/12 05:22:05;;;;;;;12.75;4.00;;;;;;;;;;5016307;28;20033;-72
2023/08/12 05:24:31;;;;;;;16.25;3.75;;;;;;;;;;5021415;28;20632;-72
2023/08/12 05:26:57;;;;;;;10.15;3.42;;;;;;;;;;5017832;28;20040;-71
2023/08/12 05:29:24;;;;;;;10.88;3.88;;;;;;;;;;5021507;28;20104;-71
2023/08/12 05:31:50;;;;;;;11.75;3.85;;;;;;;;;;5019494;28;20033;-71
2023/08/12 05:34:16;;;;;;;11.07;3.50;;;;;;;;;;5015035;28;20499;-72
2023/08/12 05:36:42;;;;;;;10.93;3.53;;;;;;;;;;5019675;28;20722;-71
2023/08/12 05:39:08;;;;;;;14.95;4.00;;;;;;;;;;5003911;28;20028;-71
2023/08/12 05:41:34;;;;;;;14.90;4.28;;;;;;;;;;5021926;28;20041;-71
2023/08/12 05:44:00;;;;;;;11.88;3.67;;;;;;;;;;5016743;28;20483;-72
2023/08/12 05:46:26;;;;;;;12.60;3.80;;;;;;;;;;5020756;28;20029;-71
2023/08/12 05:48:53;;;;;;;11.63;3.67;;;;;;;;;;5020126;28;20598;-72
2023/08/12 05:51:19;;;;;;;11.30;3.80;;;;;;;;;;5018222;28;20440;-72
2023/08/12 05:53:45;;;;;;;12.35;3.72;;;;;;;;;;5019824;28;20537;-72
2023/08/12 05:56:11;;;;;;;9.27;3.45;;;;;;;;;;5017404;28;20519;-72
2023/08/12 05:58:37;;;;;;;16.73;4.15;;;;;;;;;;5019202;28;20202;-72
2023/08/12 06:01:03;;;;;;;13.75;4.20;;;;;;;;;;5016787;28;20029;-72
2023/08/12 06:03:30;;;;;;;10.95;4.40;;;;;;;;;;5018149;28;20121;-72
2023/08/12 06:05:56;;;;;;;10.50;4.45;;;;;;;;;;5017642;28;20029;-71
2023/08/12 06:08:22;;;;;;;11.95;4.03;;;;;;;;;;5016074;28;20065;-72
2023/08/12 06:10:48;;;;;;;10.10;3.45;;;;;;;;;;5021897;28;20028;-71
2023/08/12 06:13:14;;;;;;;10.50;4.00;;;;;;;;;;5019856;28;23081;-72
2023/08/12 06:15:40;;;;;;;10.52;3.17;;;;;;;;;;5002860;28;20095;-72
2023/08/12 06:18:06;;;;;;;9.43;3.75;;;;;;;;;;5018856;28;20040;-73
2023/08/12 06:20:33;;;;;;;10.70;3.72;;;;;;;;;;5020381;28;20086;-73
2023/08/12 06:22:59;;;;;;;8.30;3.03;;;;;;;;;;5016811;28;20037;-73
2023/08/12 06:25:25;;;;;;;9.80;3.95;;;;;;;;;;5018456;28;20507;-73
2023/08/12 06:27:51;;;;;;;9.30;3.35;;;;;;;;;;5021166;28;20523;-72
2023/08/12 06:30:17;;;;;;;9.98;3.60;;;;;;;;;;5016334;28;20126;-73
2023/08/12 06:32:43;;;;;;;10.82;3.42;;;;;;;;;;5023204;28;20106;-73
2023/08/12 06:35:09;;;;;;;12.38;3.65;;;;;;;;;;5018680;28;20049;-73
2023/08/12 06:37:36;;;;;;;14.43;4.40;;;;;;;;;;5019465;28;20519;-73
2023/08/12 06:40:03;;;;;;;10.98;3.97;;;;;;;;;;5014865;28;20026;-72
2023/08/12 06:42:29;;;;;;;10.98;3.60;;;;;;;;;;4999671;28;20572;-72
2023/08/12 06:44:56;;;;;;;11.55;4.32;;;;;;;;;;5003620;28;20126;-71
2023/08/12 06:47:23;;;;;;;11.75;4.68;;;;;;;;;;5019883;28;20044;-72
2023/08/12 06:49:49;;;;;;;13.35;4.32;;;;;;;;;;5002211;28;20462;-72
2023/08/12 06:52:16;;;;;;;11.68;3.90;;;;;;;;;;5016556;28;20597;-71
2023/08/12 06:54:42;;;;;;;12.18;4.38;;;;;;;;;;5017965;28;20558;-72
2023/08/12 06:57:08;;;;;;;11.95;3.88;;;;;;;;;;4995297;28;20072;-73
2023/08/12 06:59:34;;;;;;;9.40;3.60;;;;;;;;;;5020523;28;20025;-72
2023/08/12 07:02:01;;;;;;;11.20;3.22;;;;;;;;;;5017974;28;20037;-71
2023/08/12 07:04:27;;;;;;;10.90;3.35;;;;;;;;;;5018683;28;20030;-71
2023/08/12 07:06:53;;;;;;;13.85;4.05;;;;;;;;;;5021078;28;20036;-72
2023/08/12 07:09:19;;;;;;;10.70;3.67;;;;;;;;;;5017004;28;20108;-72
2023/08/12 07:11:45;;;;;;;14.43;4.00;;;;;;;;;;5000315;28;20446;-72
2023/08/12 07:14:11;;;;;;;11.85;3.25;;;;;;;;;;5016379;28;20571;-71
2023/08/12 07:16:38;;;;;;;11.65;3.72;;;;;;;;;;5001457;28;20127;-72
2023/08/12 07:19:04;;;;;;;11.02;3.25;;;;;;;;;;4999305;28;20398;-71
2023/08/12 07:21:30;;;;;;;12.27;3.70;;;;;;;;;;5018218;28;20025;-72
2023/08/12 07:23:56;;;;;;;12.73;3.70;;;;;;;;;;5015661;28;20029;-72
2023/08/12 07:26:22;;;;;;;14.48;4.07;;;;;;;;;;4991980;28;20313;-71
2023/08/12 07:28:48;;;;;;;10.63;3.53;;;;;;;;;;5013457;28;20033;-71
2023/08/12 07:31:15;;;;;;;12.27;3.90;;;;;;;;;;5009625;28;21468;-72
2023/08/12 07:33:41;;;;;;;9.00;3.20;;;;;;;;;;5010602;28;20472;-72
2023/08/12 07:36:07;;;;;;;16.75;3.58;;;;;;;;;;5008876;28;20037;-72
2023/08/12 07:38:34;;;;;;;9.02;3.33;;;;;;;;;;5010950;28;20160;-71
2023/08/12 07:41:00;;;;;;;11.05;3.50;;;;;;;;;;5010193;28;20070;-71
2023/08/12 07:43:26;;;;;;;9.32;3.00;;;;;;;;;;5009306;28;20137;-71
2023/08/12 07:45:53;;;;;;;11.63;3.38;;;;;;;;;;5009090;28;20151;-71
2023/08/12 07:48:22;;;;;;;8.50;3.40;;;;;;;;;;5006912;28;20164;-72
2023/08/12 07:50:55;;;;;;;8.68;3.08;;;;;;;;;;5009624;28;20037;-71
2023/08/12 07:53:21;;;;;;;9.68;3.28;;;;;;;;;;4995433;28;20512;-71
2023/08/12 07:55:47;;;;;;;10.50;3.30;;;;;;;;;;5011859;28;20447;-73
2023/08/12 07:58:13;;;;;;;10.48;3.20;;;;;;;;;;5006511;28;20043;-70
2023/08/12 08:00:39;;;;;;;11.57;3.25;;;;;;;;;;5014668;28;20030;-71
2023/08/12 08:03:06;;;;;;;12.70;3.33;;;;;;;;;;5012748;28;20073;-71
2023/08/12 08:05:32;;;;;;;9.80;3.13;;;;;;;;;;5015886;28;20115;-72
2023/08/12 08:07:58;;;;;;;10.88;3.25;;;;;;;;;;5011519;28;20122;-71
2023/08/12 08:10:24;;;;;;;12.15;3.20;;;;;;;;;;5015880;28;20542;-70
2023/08/12 08:12:51;;;;;;;9.55;3.13;;;;;;;;;;4995295;28;20894;-73
2023/08/12 08:15:17;;;;;;;10.43;3.05;;;;;;;;;;5009171;28;20108;-72
2023/08/12 08:17:43;;;;;;;10.45;3.05;;;;;;;;;;4993312;28;20037;-71
2023/08/12 08:20:10;;;;;;;9.18;3.25;;;;;;;;;;4996597;28;20029;-71
2023/08/12 08:22:36;;;;;;;11.75;3.15;;;;;;;;;;4998000;28;20371;-71
2023/08/12 08:25:03;;;;;;;9.98;3.50;;;;;;;;;;5010852;28;20566;-71
2023/08/12 08:27:29;;;;;;;9.68;3.47;;;;;;;;;;5012369;28;20037;-72
2023/08/12 08:29:55;;;;;;;10.80;3.38;;;;;;;;;;5010052;28;20498;-71
2023/08/12 08:32:21;;;;;;;11.77;3.40;;;;;;;;;;5013442;28;20839;-71
2023/08/12 08:34:48;;;;;;;9.82;3.17;;;;;;;;;;5011924;28;20049;-71
2023/08/12 08:37:14;;;;;;;10.18;3.33;;;;;;;;;;5013844;28;20483;-71
2023/08/12 08:39:40;;;;;;;13.82;3.38;;;;;;;;;;5013770;28;20713;-72
2023/08/12 08:42:06;;;;;;;11.90;3.55;;;;;;;;;;5008984;28;20028;-72
2023/08/12 08:44:33;;;;;;;13.35;3.38;;;;;;;;;;4996415;28;20033;-73
2023/08/12 08:47:00;;;;;;;11.00;3.30;;;;;;;;;;5011884;28;20377;-71
2023/08/12 08:49:27;;;;;;;10.13;3.15;;;;;;;;;;5010896;28;20029;-71
2023/08/12 08:51:53;;;;;;;9.88;3.33;;;;;;;;;;5014183;28;20121;-71
2023/08/12 08:54:20;;;;;;;11.60;3.50;;;;;;;;;;5013237;28;20094;-71
2023/08/12 08:56:46;;;;;;;12.02;3.47;;;;;;;;;;5012306;28;20516;-71
2023/08/12 08:59:12;;;;;;;11.15;3.95;;;;;;;;;;5010033;28;20034;-71
2023/08/12 09:01:40;;;;;;;11.80;3.83;;;;;;;;;;5013806;28;20064;-72
2023/08/12 09:04:07;;;;;;;9.85;3.45;;;;;;;;;;5007695;28;20271;-72
2023/08/12 09:06:34;;;;;;;10.25;3.72;;;;;;;;;;5014159;28;20530;-73
2023/08/12 09:09:01;;;;;;;9.32;3.40;;;;;;;;;;5011174;28;20574;-72
2023/08/12 09:11:28;;;;;;;11.68;3.30;;;;;;;;;;5012635;28;20044;-72
2023/08/12 09:13:54;;;;;;;8.45;2.90;;;;;;;;;;5010680;28;20380;-73
2023/08/12 09:16:20;;;;;;;10.93;3.35;;;;;;;;;;4996221;28;20227;-72
2023/08/12 09:18:46;;;;;;;14.40;3.70;;;;;;;;;;5015014;28;20021;-72
2023/08/12 09:21:13;;;;;;;10.50;3.72;;;;;;;;;;5011685;28;20482;-71
2023/08/12 09:23:39;;;;;;;8.93;3.40;;;;;;;;;;4997571;28;20463;-71
2023/08/12 09:26:16;;;;;;;10.05;3.53;;;;;;;;;;5006590;28;20218;-72
2023/08/12 09:28:45;;;;;;;9.02;3.50;;;;;;;;;;5013370;28;20734;-72
2023/08/12 09:31:25;;;;;;;9.98;3.38;;;;;;;;;;5014179;28;20134;-72
2023/08/12 09:33:51;;;;;;;10.57;3.83;;;;;;;;;;5014804;28;20031;-71
2023/08/12 09:36:17;;;;;;;10.68;3.63;;;;;;;;;;5011171;28;20432;-72
2023/08/12 09:38:44;;;;;;;9.45;3.42;;;;;;;;;;5012489;28;20072;-72
2023/08/12 09:41:10;;;;;;;9.32;3.13;;;;;;;;;;5010110;28;20996;-72
2023/08/12 09:43:41;;;;;;;10.57;4.00;;;;;;;;;;5012852;28;20245;-73
2023/08/12 09:46:08;;;;;;;13.35;3.33;;;;;;;;;;5011843;28;20095;-72
2023/08/12 09:48:34;;;;;;;10.20;3.33;;;;;;;;;;5014303;28;20364;-72
2023/08/12 09:51:00;;;;;;;9.68;3.40;;;;;;;;;;5011576;28;20430;-72
2023/08/12 09:53:27;;;;;;;10.05;3.58;;;;;;;;;;5014632;28;20514;-73
2023/08/12 09:55:55;;;;;;;8.85;2.70;;;;;;;;;;5011181;28;20344;-71
2023/08/12 09:58:22;;;;;;;11.48;3.42;;;;;;;;;;5011942;28;20082;-72
2023/08/12 10:00:48;;;;;;;10.13;3.42;;;;;;;;;;5012256;28;20838;-72
2023/08/12 10:03:17;;;;;;;10.95;3.38;;;;;;;;;;5007972;28;22739;-71
2023/08/12 10:05:43;;;;;;;8.98;3.17;;;;;;;;;;5013561;28;20519;-71
2023/08/12 10:08:10;;;;;;;12.95;3.42;;;;;;;;;;5012321;28;20025;-71
2023/08/12 10:10:36;;;;;;;13.10;3.72;;;;;;;;;;5012410;28;20522;-71
2023/08/12 10:13:06;;;;;;;10.13;3.55;;;;;;;;;;4992130;28;20364;-72
2023/08/12 10:15:33;;;;;;;11.32;3.70;;;;;;;;;;5013613;28;20477;-71
2023/08/12 10:17:59;;;;;;;11.00;3.85;;;;;;;;;;5008062;28;20025;-71
2023/08/12 10:20:25;;;;;;;10.00;3.65;;;;;;;;;;5011719;28;20037;-71
2023/08/12 10:22:52;;;;;;;9.20;3.45;;;;;;;;;;5009466;28;20083;-71
2023/08/12 10:25:21;;;;;;;9.65;3.47;;;;;;;;;;5007371;28;20038;-71
2023/08/12 10:27:48;;;;;;;22.02;4.78;;;;;;;;;;4994840;28;20762;-72
2023/08/12 10:30:14;;;;;;;18.15;4.93;;;;;;;;;;5010224;28;20550;-72
2023/08/12 10:32:41;;;;;;;18.05;4.90;;;;;;;;;;5006743;28;20442;-72
2023/08/12 10:35:08;;;;;;;13.85;3.78;;;;;;;;;;5007244;28;20466;-71
2023/08/12 10:37:37;;;;;;;10.85;3.63;;;;;;;;;;5009085;28;20301;-72
2023/08/12 10:40:10;;;;;;;11.82;3.70;;;;;;;;;;5005675;28;20033;-72
2023/08/12 10:42:49;;;;;;;10.80;3.58;;;;;;;;;;5008424;28;20079;-72
2023/08/12 10:45:16;;;;;;;9.70;3.17;;;;;;;;;;5010738;28;21448;-72
2023/08/12 10:48:02;;;;;;;9.43;3.22;;;;;;;;;;4994876;28;20620;-72
2023/08/12 10:50:28;;;;;;;9.98;3.40;;;;;;;;;;4983638;28;20175;-74
2023/08/12 10:52:55;;;;;;;9.68;3.60;;;;;;;;;;5009768;28;20082;-72
2023/08/12 10:55:22;;;;;;;10.60;3.50;;;;;;;;;;4994262;28;20128;-72
2023/08/12 10:57:49;;;;;;;9.23;3.25;;;;;;;;;;5008521;28;20515;-72
2023/08/12 11:00:21;;;;;;;11.05;3.47;;;;;;;;;;5007534;28;22382;-73
2023/08/12 11:02:52;;;;;;;16.42;3.78;;;;;;;;;;4995619;28;20489;-72
2023/08/12 11:05:22;;;;;;;10.05;3.28;;;;;;;;;;4990624;28;20664;-72
2023/08/12 11:07:58;;;;;;;10.25;3.67;;;;;;;;;;5011820;28;20103;-73
2023/08/12 11:10:25;;;;;;;11.20;3.38;;;;;;;;;;4994200;28;20045;-72
2023/08/12 11:12:55;;;;;;;9.43;3.05;;;;;;;;;;5011359;28;20562;-73
2023/08/12 11:15:31;;;;;;;10.98;3.42;;;;;;;;;;5013667;28;20799;-71
2023/08/12 11:17:57;;;;;;;9.68;3.35;;;;;;;;;;5005848;28;20048;-73
2023/08/12 11:20:24;;;;;;;13.13;3.60;;;;;;;;;;4992084;28;20033;-71
2023/08/12 11:22:50;;;;;;;12.48;3.50;;;;;;;;;;5008735;28;20029;-72
2023/08/12 11:25:17;;;;;;;11.48;3.65;;;;;;;;;;5006613;28;20502;-73
2023/08/12 11:27:46;;;;;;;10.65;3.58;;;;;;;;;;5008819;28;20408;-73
2023/08/12 11:30:15;;;;;;;9.18;3.15;;;;;;;;;;4990881;28;20251;-73
2023/08/12 11:32:42;;;;;;;12.77;3.70;;;;;;;;;;5013741;28;20025;-73
2023/08/12 11:35:09;;;;;;;8.80;3.30;;;;;;;;;;5008436;28;20118;-73
2023/08/12 11:37:36;;;;;;;10.05;3.33;;;;;;;;;;5008829;28;20025;-73
2023/08/12 11:40:03;;;;;;;10.10;3.67;;;;;;;;;;5007068;28;20031;-73
2023/08/12 11:42:30;;;;;;;11.15;3.47;;;;;;;;;;5012967;28;20525;-72
2023/08/12 11:44:56;;;;;;;9.45;3.15;;;;;;;;;;5006825;28;20099;-73
2023/08/12 11:47:22;;;;;;;8.77;3.10;;;;;;;;;;5012918;28;20021;-73
2023/08/12 11:49:48;;;;;;;8.77;3.08;;;;;;;;;;5011127;28;20159;-72
2023/08/12 11:52:14;;;;;;;11.13;3.45;;;;;;;;;;5009284;28;20025;-72
2023/08/12 11:54:41;;;;;;;12.18;3.05;;;;;;;;;;5011917;28;20094;-72
2023/08/12 11:57:07;;;;;;;8.15;3.17;;;;;;;;;;5007298;28;20021;-73
2023/08/12 11:59:33;;;;;;;8.98;2.90;;;;;;;;;;4995182;28;20122;-72
2023/08/12 12:02:02;;;;;;;8.80;3.15;;;;;;;;;;5008265;28;20322;-73
2023/08/12 12:04:28;;;;;;;11.25;3.58;;;;;;;;;;5009568;28;20447;-73
2023/08/12 12:06:54;;;;;;;8.88;3.05;;;;;;;;;;5009465;28;20379;-74
2023/08/12 12:09:21;;;;;;;8.73;3.15;;;;;;;;;;4992230;28;20400;-74
2023/08/12 12:11:47;;;;;;;14.80;3.33;;;;;;;;;;5008773;28;20491;-72
2023/08/12 12:14:13;;;;;;;9.82;3.15;;;;;;;;;;5006129;28;20064;-73
2023/08/12 12:16:43;;;;;;;9.27;3.33;;;;;;;;;;4992490;28;20384;-72
2023/08/12 12:19:10;;;;;;;12.70;3.25;;;;;;;;;;5008680;28;20031;-72
2023/08/12 12:21:40;;;;;;;8.27;2.92;;;;;;;;;;5011355;28;20553;-72
2023/08/12 12:24:07;;;;;;;10.35;2.90;;;;;;;;;;5002858;28;20667;-72
2023/08/12 12:26:33;;;;;;;7.68;2.70;;;;;;;;;;5013021;28;20116;-73
2023/08/12 12:29:00;;;;;;;9.80;3.13;;;;;;;;;;5010947;28;20105;-73
2023/08/12 12:31:26;;;;;;;9.15;2.90;;;;;;;;;;5008796;28;20037;-73
2023/08/12 12:33:52;;;;;;;10.20;3.30;;;;;;;;;;5010608;28;20037;-73
2023/08/12 12:36:18;;;;;;;7.13;2.80;;;;;;;;;;5005854;28;20032;-73
2023/08/12 12:38:44;;;;;;;9.70;2.95;;;;;;;;;;5007651;28;20030;-73
2023/08/12 12:41:10;;;;;;;9.57;3.05;;;;;;;;;;5006399;28;20034;-73
2023/08/12 12:43:36;;;;;;;9.07;2.83;;;;;;;;;;5008775;28;20033;-73
2023/08/12 12:46:02;;;;;;;15.73;3.00;;;;;;;;;;5004009;28;20238;-73
2023/08/12 12:48:28;;;;;;;8.55;2.85;;;;;;;;;;5014596;28;20025;-73
2023/08/12 12:50:55;;;;;;;9.10;2.95;;;;;;;;;;5011890;28;20226;-73
2023/08/12 12:53:21;;;;;;;9.05;3.20;;;;;;;;;;5010677;28;20402;-73
2023/08/12 12:55:47;;;;;;;8.52;2.95;;;;;;;;;;5013617;28;20053;-73
2023/08/12 12:58:13;;;;;;;8.20;2.85;;;;;;;;;;5010273;28;20456;-74
2023/08/12 13:00:39;;;;;;;9.27;2.83;;;;;;;;;;5014337;28;20128;-72
2023/08/12 13:03:05;;;;;;;8.18;2.75;;;;;;;;;;5013531;28;20376;-72
2023/08/12 13:05:31;;;;;;;9.40;2.70;;;;;;;;;;5010833;28;20033;-73
2023/08/12 13:07:57;;;;;;;8.68;2.55;;;;;;;;;;4993146;28;20136;-73
2023/08/12 13:10:24;;;;;;;9.95;2.90;;;;;;;;;;5013025;28;20058;-72
2023/08/12 13:12:50;;;;;;;8.07;2.67;;;;;;;;;;4990734;28;20399;-72
2023/08/12 13:15:16;;;;;;;8.23;2.67;;;;;;;;;;4991699;28;20384;-72
2023/08/12 13:17:42;;;;;;;8.27;2.63;;;;;;;;;;5010437;28;20043;-72
2023/08/12 13:20:09;;;;;;;11.60;2.70;;;;;;;;;;5009326;28;20149;-73
2023/08/12 13:22:35;;;;;;;8.50;2.65;;;;;;;;;;4991275;28;20030;-75
2023/08/12 13:25:02;;;;;;;9.45;2.60;;;;;;;;;;5009975;28;20041;-73
2023/08/12 13:27:28;;;;;;;8.77;2.78;;;;;;;;;;5011592;28;20379;-73
2023/08/12 13:29:54;;;;;;;8.40;2.83;;;;;;;;;;5012578;28;20458;-72
2023/08/12 13:32:20;;;;;;;8.32;2.72;;;;;;;;;;4994646;28;20135;-73
2023/08/12 13:34:47;;;;;;;9.05;2.95;;;;;;;;;;5012569;28;20161;-72
2023/08/12 13:37:14;;;;;;;8.32;2.58;;;;;;;;;;5013609;28;20029;-72
2023/08/12 13:39:40;;;;;;;7.43;2.67;;;;;;;;;;5013570;28;20064;-72
2023/08/12 13:42:07;;;;;;;9.00;2.63;;;;;;;;;;5008940;28;20592;-73
2023/08/12 13:44:33;;;;;;;8.43;2.58;;;;;;;;;;5009819;28;20033;-73
2023/08/12 13:46:59;;;;;;;8.20;2.63;;;;;;;;;;5010706;28;20464;-74
2023/08/12 13:49:25;;;;;;;7.25;2.55;;;;;;;;;;5014423;28;20075;-72
2023/08/12 13:51:51;;;;;;;9.55;2.70;;;;;;;;;;4997876;28;20044;-74
2023/08/12 13:54:17;;;;;;;7.13;2.47;;;;;;;;;;5015315;28;20128;-74
2023/08/12 13:56:43;;;;;;;8.32;2.35;;;;;;;;;;5015652;28;20129;-71
2023/08/12 13:59:10;;;;;;;8.00;2.80;;;;;;;;;;4994656;28;20375;-74
2023/08/12 14:01:36;;;;;;;8.98;2.65;;;;;;;;;;5014519;28;20069;-73
2023/08/12 14:04:02;;;;;;;8.73;2.90;;;;;;;;;;5015709;28;20048;-74
2023/08/12 14:06:28;;;;;;;8.35;2.90;;;;;;;;;;5014021;28;20048;-74
2023/08/12 14:08:54;;;;;;;8.15;2.75;;;;;;;;;;5012036;28;20549;-73
2023/08/12 14:11:21;;;;;;;10.13;3.33;;;;;;;;;;4997076;28;20252;-73
2023/08/12 14:13:47;;;;;;;9.45;2.95;;;;;;;;;;5016806;28;20132;-73
2023/08/12 14:16:13;;;;;;;9.10;3.00;;;;;;;;;;5015686;28;20033;-73
2023/08/12 14:18:39;;;;;;;9.00;2.60;;;;;;;;;;5016412;28;20387;-72
2023/08/12 14:21:05;;;;;;;8.30;2.60;;;;;;;;;;5008756;28;20072;-72
2023/08/12 14:23:32;;;;;;;8.43;2.80;;;;;;;;;;4992779;28;20115;-72
2023/08/12 14:25:58;;;;;;;6.50;2.60;;;;;;;;;;5007962;28;20069;-72
2023/08/12 14:28:24;;;;;;;9.77;2.70;;;;;;;;;;4994415;28;20029;-72
2023/08/12 14:30:50;;;;;;;9.35;2.80;;;;;;;;;;5009350;28;20493;-72
2023/08/12 14:33:16;;;;;;;14.27;7.70;;;;;;;;;;5010445;28;20452;-72